Time;durP1;ratioP1;P1;durP2;ratioP2;P2;SDS_P1;SDS_P2;PMS_P1;PMS_P2;Temp;Humidity;BMP_temperature;BMP_pressure;BME280_temperature;BME280_humidity;BME280_pressure;Samples;Min_cycle;Max_cycle;Signal;HPM_P1;HPM_P2
2021/08/25 00:02:09;;;;;;;16.25;8.50;;;;;;;17.17;64.79;94977.13;5068810;28;20044;-68
2021/08/25 00:04:40;;;;;;;11.60;8.48;;;;;;;17.11;64.78;94973.72;5068695;28;20036;-68
2021/08/25 00:07:07;;;;;;;12.90;8.90;;;;;;;17.11;64.83;94965.03;5068809;28;20049;-68
2021/08/25 00:09:39;;;;;;;16.65;8.10;;;;;;;17.12;65.15;94963.97;5068606;28;20614;-68
2021/08/25 00:12:08;;;;;;;12.77;7.55;;;;;;;17.11;65.02;94957.16;5067790;28;20044;-68
2021/08/25 00:14:41;;;;;;;11.18;7.63;;;;;;;17.07;65.61;94961.34;5068420;28;20078;-68
2021/08/25 00:17:10;;;;;;;13.65;7.88;;;;;;;17.04;66.31;94969.81;5068872;28;20048;-68
2021/08/25 00:19:37;;;;;;;10.68;8.27;;;;;;;17.02;65.98;94974.53;5068480;28;20094;-68
2021/08/25 00:22:04;;;;;;;12.65;8.13;;;;;;;16.97;66.56;94984.00;5067385;28;20498;-68
2021/08/25 00:24:31;;;;;;;11.18;7.95;;;;;;;16.95;66.65;94980.88;5068372;28;20422;-68
2021/08/25 00:26:58;;;;;;;12.45;7.82;;;;;;;16.93;66.96;94988.22;5068238;28;20048;-68
2021/08/25 00:29:25;;;;;;;10.70;8.50;;;;;;;17.03;66.66;94989.25;5066547;28;20043;-68
2021/08/25 00:31:51;;;;;;;13.07;8.13;;;;;;;17.05;66.47;94979.25;5068230;28;20517;-68
2021/08/25 00:34:18;;;;;;;18.20;8.73;;;;;;;17.08;66.89;94989.25;5068070;28;20105;-67
2021/08/25 00:36:45;;;;;;;10.48;8.45;;;;;;;17.08;67.11;94984.00;5068220;28;20041;-68
2021/08/25 00:39:12;;;;;;;9.43;7.75;;;;;;;17.02;67.49;94985.06;5067955;28;20058;-68
2021/08/25 00:41:39;;;;;;;17.77;9.55;;;;;;;16.89;67.51;94971.41;5068102;28;20029;-68
2021/08/25 00:44:05;;;;;;;11.48;8.20;;;;;;;16.85;67.98;94975.63;5068230;28;20049;-68
2021/08/25 00:46:35;;;;;;;11.07;8.30;;;;;;;16.79;68.06;94972.19;5066944;28;20061;-69
2021/08/25 00:49:02;;;;;;;14.05;9.68;;;;;;;16.79;68.71;94974.03;5067974;28;20052;-68
2021/08/25 00:51:29;;;;;;;13.32;8.60;;;;;;;16.74;68.61;94974.81;5068187;28;20094;-68
2021/08/25 00:53:57;;;;;;;23.05;9.20;;;;;;;16.73;69.07;94967.22;5068022;28;20109;-68
2021/08/25 00:56:24;;;;;;;13.25;9.60;;;;;;;16.77;69.55;94973.50;5067593;28;20072;-68
2021/08/25 00:58:51;;;;;;;11.48;10.18;;;;;;;16.80;69.08;94973.00;5065889;28;20044;-68
2021/08/25 01:01:34;;;;;;;12.13;10.23;;;;;;;16.84;69.64;94971.44;5067785;28;20037;-68
2021/08/25 01:04:06;;;;;;;16.67;11.20;;;;;;;16.87;71.02;94970.91;5068019;28;20040;-68
2021/08/25 01:06:35;;;;;;;14.38;11.30;;;;;;;16.85;71.15;94965.09;5068147;28;20059;-68
2021/08/25 01:09:03;;;;;;;19.27;11.52;;;;;;;16.87;71.24;94968.28;5066953;28;20040;-68
2021/08/25 01:11:42;;;;;;;19.65;12.43;;;;;;;16.87;72.15;94957.75;5067349;28;20044;-68
2021/08/25 01:14:09;;;;;;;16.90;11.98;;;;;;;16.86;72.31;94955.38;5067296;28;20646;-68
2021/08/25 01:16:40;;;;;;;28.27;11.63;;;;;;;16.83;72.32;94954.06;5067510;28;20375;-68
2021/08/25 01:19:15;;;;;;;16.23;11.07;;;;;;;16.87;72.17;94956.94;5066729;28;20055;-68
2021/08/25 01:21:45;;;;;;;18.30;13.55;;;;;;;16.89;72.36;94955.63;5067230;28;20888;-68
2021/08/25 01:24:13;;;;;;;17.33;13.05;;;;;;;16.90;72.99;94962.44;5067320;28;20045;-68
2021/08/25 01:26:41;;;;;;;17.38;12.95;;;;;;;16.89;73.97;94960.91;5067455;28;20052;-68
2021/08/25 01:29:21;;;;;;;22.77;14.65;;;;;;;16.93;74.30;94955.88;5066309;28;20126;-68
2021/08/25 01:31:50;;;;;;;17.40;13.05;;;;;;;16.94;74.38;94946.91;5067220;28;20054;-68
2021/08/25 01:34:17;;;;;;;17.80;14.25;;;;;;;17.02;75.72;94943.75;5066966;28;20051;-68
2021/08/25 01:36:43;;;;;;;25.65;16.27;;;;;;;17.05;76.25;94942.41;5067313;28;20036;-68
2021/08/25 01:39:10;;;;;;;21.63;15.43;;;;;;;17.06;76.56;94944.00;5066874;28;20052;-68
2021/08/25 01:41:37;;;;;;;24.10;15.40;;;;;;;17.07;76.56;94945.56;5066840;28;20438;-68
2021/08/25 01:44:04;;;;;;;22.38;15.27;;;;;;;17.05;76.71;94945.84;5066990;28;20040;-68
2021/08/25 01:46:39;;;;;;;22.65;16.42;;;;;;;17.01;76.63;94942.16;5067021;28;20056;-68
2021/08/25 01:49:08;;;;;;;22.98;15.88;;;;;;;17.04;77.74;94935.59;5049423;28;20094;-68
2021/08/25 01:51:37;;;;;;;25.02;18.27;;;;;;;17.08;77.60;94931.38;5066837;28;20048;-68
2021/08/25 01:54:05;;;;;;;24.17;17.90;;;;;;;17.09;78.58;94922.44;5066739;28;20078;-68
2021/08/25 01:56:36;;;;;;;24.58;19.95;;;;;;;17.08;78.94;94920.84;5066525;28;20049;-68
2021/08/25 01:59:03;;;;;;;25.50;19.17;;;;;;;17.09;79.66;94901.38;5065339;28;20044;-68
2021/08/25 02:01:30;;;;;;;29.10;20.23;;;;;;;17.04;80.90;94888.25;5067079;28;20055;-68
2021/08/25 02:03:59;;;;;;;26.52;17.95;;;;;;;16.75;82.11;94901.97;5065649;28;20040;-68
2021/08/25 02:06:25;;;;;;;25.92;18.85;;;;;;;16.56;82.55;94893.88;5066818;28;20098;-68
2021/08/25 02:08:52;;;;;;;26.52;19.60;;;;;;;16.73;81.93;94898.84;5066332;28;20475;-68
2021/08/25 02:11:19;;;;;;;27.35;20.88;;;;;;;16.82;82.46;94902.50;5066139;28;20087;-68
2021/08/25 02:13:46;;;;;;;24.45;19.70;;;;;;;16.88;82.26;94906.69;5066323;28;20090;-68
2021/08/25 02:16:13;;;;;;;31.35;21.27;;;;;;;17.02;81.83;94906.13;5066347;28;20114;-68
2021/08/25 02:18:40;;;;;;;32.05;20.65;;;;;;;17.08;81.99;94899.78;5066094;28;20047;-69
2021/08/25 02:21:07;;;;;;;29.52;19.88;;;;;;;16.93;82.03;94921.69;5066292;28;20667;-68
2021/08/25 02:23:35;;;;;;;18.98;13.65;;;;;;;16.59;78.57;94917.78;5066394;28;20044;-68
2021/08/25 02:26:02;;;;;;;27.90;13.90;;;;;;;16.40;77.49;94916.75;5064881;28;20607;-68
2021/08/25 02:28:29;;;;;;;19.23;12.00;;;;;;;16.37;76.72;94912.06;5065923;28;20536;-68
2021/08/25 02:30:56;;;;;;;16.70;11.70;;;;;;;16.43;76.08;94911.00;5066211;28;20041;-68
2021/08/25 02:33:23;;;;;;;20.98;11.60;;;;;;;16.38;75.02;94913.63;5066105;28;20047;-68
2021/08/25 02:35:50;;;;;;;17.63;10.65;;;;;;;16.37;74.67;94922.56;5065986;28;20053;-68
2021/08/25 02:38:17;;;;;;;16.40;11.18;;;;;;;16.46;73.81;94915.72;5066200;28;20040;-68
2021/08/25 02:40:44;;;;;;;20.52;11.35;;;;;;;16.48;74.61;94923.34;5066060;28;20032;-68
2021/08/25 02:43:11;;;;;;;14.30;11.02;;;;;;;16.51;74.00;94918.34;5065763;28;20040;-68
2021/08/25 02:45:37;;;;;;;17.02;11.48;;;;;;;16.41;73.99;94923.63;5065275;28;20059;-68
2021/08/25 02:48:05;;;;;;;14.55;10.88;;;;;;;16.46;74.38;94915.72;5065970;28;20390;-68
2021/08/25 02:50:32;;;;;;;19.35;11.05;;;;;;;16.52;74.42;94919.91;5065904;28;20037;-68
2021/08/25 02:52:58;;;;;;;16.02;11.52;;;;;;;16.60;74.78;94922.00;5064830;28;20048;-68
2021/08/25 02:55:25;;;;;;;16.80;11.57;;;;;;;16.68;75.14;94917.25;5066269;28;20394;-68
2021/08/25 02:57:52;;;;;;;15.75;12.43;;;;;;;16.68;76.21;94922.53;5064312;28;20056;-68
2021/08/25 03:00:19;;;;;;;16.38;12.48;;;;;;;16.75;76.04;94929.06;5063814;28;20406;-69
2021/08/25 03:02:46;;;;;;;17.70;13.45;;;;;;;16.73;77.56;94930.41;5065975;28;20417;-68
2021/08/25 03:05:13;;;;;;;20.08;14.27;;;;;;;16.79;77.79;94929.31;5065606;28;20051;-68
2021/08/25 03:07:40;;;;;;;18.25;13.27;;;;;;;16.86;77.70;94934.34;5065937;28;20044;-69
2021/08/25 03:10:07;;;;;;;19.63;11.50;;;;;;;16.91;76.32;94935.09;5065716;28;20106;-68
2021/08/25 03:12:34;;;;;;;15.18;12.07;;;;;;;16.98;75.35;94946.13;5065720;28;20090;-68
2021/08/25 03:15:02;;;;;;;15.55;11.25;;;;;;;17.10;74.92;94950.28;5064099;28;20045;-68
2021/08/25 03:17:29;;;;;;;17.10;11.30;;;;;;;17.17;74.03;94956.06;5065685;28;20056;-68
2021/08/25 03:19:56;;;;;;;14.93;10.95;;;;;;;17.22;73.91;94953.41;5065308;28;20056;-68
2021/08/25 03:22:22;;;;;;;16.95;10.60;;;;;;;17.29;74.23;94963.66;5064372;28;20064;-69
2021/08/25 03:24:49;;;;;;;18.10;11.98;;;;;;;17.32;74.91;94963.91;5063991;28;20044;-69
2021/08/25 03:27:16;;;;;;;19.08;11.77;;;;;;;17.39;74.58;94969.69;5064910;28;20106;-69
2021/08/25 03:29:43;;;;;;;14.07;11.02;;;;;;;17.42;73.41;94968.34;5064471;28;20052;-69
2021/08/25 03:32:10;;;;;;;17.13;10.88;;;;;;;17.46;72.82;94973.84;5065509;28;20506;-69
2021/08/25 03:34:37;;;;;;;20.70;11.88;;;;;;;17.53;72.89;94975.13;5065647;28;20044;-69
2021/08/25 03:37:04;;;;;;;20.15;12.40;;;;;;;17.58;74.39;94963.78;5065733;28;20044;-69
2021/08/25 03:39:32;;;;;;;20.08;11.88;;;;;;;17.60;77.13;94964.31;5065450;28;20086;-69
2021/08/25 03:41:59;;;;;;;20.52;11.63;;;;;;;17.55;78.37;94953.78;5064310;28;20036;-70
2021/08/25 03:44:26;;;;;;;21.60;11.77;;;;;;;17.60;79.83;94950.34;5064401;28;20067;-70
2021/08/25 03:46:53;;;;;;;18.90;12.68;;;;;;;17.63;80.19;94953.22;5064270;28;20403;-71
2021/08/25 03:49:19;;;;;;;19.02;12.65;;;;;;;17.64;79.91;94944.25;5065339;28;20040;-71
2021/08/25 03:51:46;;;;;;;20.60;11.82;;;;;;;17.51;82.62;94940.38;5064477;28;20460;-70
2021/08/25 03:54:13;;;;;;;21.15;12.73;;;;;;;17.35;83.20;94947.56;5065218;28;20052;-70
2021/08/25 03:56:41;;;;;;;14.73;10.85;;;;;;;17.27;82.91;94940.25;5066554;28;20056;-71
2021/08/25 03:59:07;;;;;;;14.95;9.65;;;;;;;17.31;81.46;94946.53;5067501;28;20048;-70
2021/08/25 04:01:34;;;;;;;19.38;10.20;;;;;;;17.42;81.11;94941.22;5068879;28;20378;-71
2021/08/25 04:04:05;;;;;;;19.50;10.65;;;;;;;17.46;82.09;94952.78;5069580;28;20040;-71
2021/08/25 04:06:34;;;;;;;18.55;10.35;;;;;;;17.51;81.77;94944.88;5068651;28;20040;-71
2021/08/25 04:09:02;;;;;;;17.20;8.63;;;;;;;17.38;79.36;94944.38;5068799;28;20166;-71
2021/08/25 04:11:28;;;;;;;34.95;14.60;;;;;;;17.20;81.16;94950.28;5068725;28;20047;-70
2021/08/25 04:13:55;;;;;;;38.72;16.35;;;;;;;17.16;82.42;94954.47;5068702;28;20391;-70
2021/08/25 04:16:22;;;;;;;36.72;17.25;;;;;;;17.05;84.43;94937.16;5068690;28;20090;-71
2021/08/25 04:18:49;;;;;;;41.67;17.73;;;;;;;17.09;85.54;94943.47;5068857;28;20056;-71
2021/08/25 04:21:16;;;;;;;40.20;18.20;;;;;;;17.06;85.66;94944.00;5068263;28;20097;-70
2021/08/25 04:23:42;;;;;;;31.98;18.38;;;;;;;17.09;86.45;94948.75;5068544;28;20545;-71
2021/08/25 04:26:09;;;;;;;30.95;18.75;;;;;;;17.07;87.42;94935.03;5068325;28;20044;-71
2021/08/25 04:28:36;;;;;;;36.15;20.05;;;;;;;17.12;87.71;94943.69;5068118;28;20106;-71
2021/08/25 04:31:03;;;;;;;30.25;20.17;;;;;;;17.05;90.60;94921.38;5068219;28;20459;-71
2021/08/25 04:33:30;;;;;;;31.27;20.98;;;;;;;17.00;92.57;94915.06;5068400;28;20044;-71
2021/08/25 04:35:58;;;;;;;32.88;21.77;;;;;;;16.91;93.68;94915.91;5068221;28;20040;-71
2021/08/25 04:38:25;;;;;;;32.08;22.15;;;;;;;17.00;94.05;94911.66;5068278;28;20119;-71
2021/08/25 04:40:53;;;;;;;36.90;21.52;;;;;;;16.97;94.49;94910.34;5068071;28;20409;-70
2021/08/25 04:43:20;;;;;;;33.67;22.70;;;;;;;17.00;94.85;94909.03;5068278;28;20040;-70
2021/08/25 04:45:48;;;;;;;32.10;20.65;;;;;;;17.09;94.35;94919.78;5061600;28;20052;-69
2021/08/25 04:48:15;;;;;;;33.25;22.67;;;;;;;17.17;92.75;94916.59;5049882;28;20405;-69
2021/08/25 04:50:42;;;;;;;30.02;17.77;;;;;;;17.14;89.40;94903.97;5066755;28;20094;-69
2021/08/25 04:53:09;;;;;;;34.67;18.05;;;;;;;16.92;88.46;94907.72;5067247;28;20094;-69
2021/08/25 04:55:37;;;;;;;21.52;13.02;;;;;;;16.79;85.44;94905.66;5067553;28;20548;-69
2021/08/25 04:58:05;;;;;;;21.20;12.68;;;;;;;16.61;84.76;94907.78;5067500;28;20409;-69
2021/08/25 05:00:32;;;;;;;17.73;12.50;;;;;;;16.53;84.57;94900.47;5065816;28;20440;-68
2021/08/25 05:02:59;;;;;;;19.85;11.88;;;;;;;16.43;85.00;94884.69;5067929;28;20049;-68
2021/08/25 05:05:26;;;;;;;23.13;11.90;;;;;;;16.49;86.08;94883.63;5066159;28;20506;-68
2021/08/25 05:07:53;;;;;;;16.35;11.30;;;;;;;16.13;87.33;94886.31;5064516;28;20047;-67
2021/08/25 05:10:20;;;;;;;18.02;11.95;;;;;;;16.24;86.43;94898.41;5065301;28;20048;-68
2021/08/25 05:12:46;;;;;;;19.02;10.93;;;;;;;16.28;85.10;94893.41;5061728;28;20044;-68
2021/08/25 05:15:14;;;;;;;22.92;10.88;;;;;;;16.25;85.30;94913.09;5063571;28;20048;-67
2021/08/25 05:17:40;;;;;;;20.48;10.48;;;;;;;16.27;85.35;94912.06;5067020;28;20062;-68
2021/08/25 05:20:07;;;;;;;15.55;11.52;;;;;;;16.16;85.91;94922.56;5067036;28;20033;-68
2021/08/25 05:22:35;;;;;;;18.80;11.75;;;;;;;16.12;86.60;94910.25;5067277;28;20452;-68
2021/08/25 05:25:03;;;;;;;27.67;15.35;;;;;;;16.15;86.34;94904.44;5066884;28;20044;-69
2021/08/25 05:27:29;;;;;;;16.48;11.18;;;;;;;16.23;86.46;94912.59;5067148;28;20048;-67
2021/08/25 05:29:56;;;;;;;25.65;15.23;;;;;;;16.30;87.14;94899.19;5067337;28;20086;-68
2021/08/25 05:32:23;;;;;;;17.60;12.90;;;;;;;16.47;85.45;94912.03;5066396;28;20043;-68
2021/08/25 05:34:50;;;;;;;16.38;11.48;;;;;;;16.53;84.85;94905.72;5066497;28;20044;-68
2021/08/25 05:37:16;;;;;;;17.95;12.65;;;;;;;16.62;85.21;94917.25;5064747;28;20485;-67
2021/08/25 05:39:43;;;;;;;25.08;13.13;;;;;;;16.68;84.93;94917.25;5065896;28;20513;-67
2021/08/25 05:42:10;;;;;;;16.77;12.10;;;;;;;16.80;85.51;94920.38;5065750;28;20052;-68
2021/08/25 05:44:37;;;;;;;25.77;12.82;;;;;;;16.93;84.85;94917.22;5065675;28;20061;-68
2021/08/25 05:47:04;;;;;;;23.10;11.93;;;;;;;16.98;84.47;94917.19;5065742;28;20048;-68
2021/08/25 05:49:30;;;;;;;18.25;12.02;;;;;;;17.03;84.50;94913.75;5067309;28;20044;-68
2021/08/25 05:51:57;;;;;;;14.80;11.40;;;;;;;17.11;84.39;94909.78;5065878;28;20032;-68
2021/08/25 05:54:24;;;;;;;28.70;12.13;;;;;;;17.24;84.02;94909.19;5066903;28;20043;-68
2021/08/25 05:56:51;;;;;;;20.67;11.85;;;;;;;17.26;83.41;94909.69;5067002;28;20045;-68
2021/08/25 05:59:17;;;;;;;13.52;11.60;;;;;;;17.39;82.26;94922.28;5064286;28;20055;-68
2021/08/25 06:01:44;;;;;;;14.73;12.52;;;;;;;17.41;82.30;94918.59;5064704;28;20497;-67
2021/08/25 06:04:11;;;;;;;21.20;13.05;;;;;;;17.56;82.92;94926.41;5066664;28;20040;-67
2021/08/25 06:06:38;;;;;;;20.90;12.98;;;;;;;17.67;82.85;94917.38;5066593;28;20055;-67
2021/08/25 06:09:05;;;;;;;22.25;14.43;;;;;;;17.81;82.83;94916.75;5066745;28;20040;-68
2021/08/25 06:11:36;;;;;;;24.20;18.05;;;;;;;17.94;83.89;94910.91;5066033;28;20040;-67
2021/08/25 06:14:03;;;;;;;26.85;17.15;;;;;;;18.09;83.51;94913.41;5065154;28;20059;-67
2021/08/25 06:16:30;;;;;;;30.95;18.00;;;;;;;18.18;82.55;94905.69;5065916;28;20048;-67
2021/08/25 06:18:57;;;;;;;31.67;17.52;;;;;;;18.47;82.00;94921.53;5065687;28;20472;-67
2021/08/25 06:21:24;;;;;;;33.15;17.80;;;;;;;18.63;81.13;94916.09;5066335;28;20445;-67
2021/08/25 06:23:51;;;;;;;24.98;16.33;;;;;;;18.83;80.42;94910.63;5066633;28;20056;-67
2021/08/25 06:26:18;;;;;;;26.27;15.40;;;;;;;18.98;78.29;94903.63;5066352;28;20052;-67
2021/08/25 06:28:44;;;;;;;23.88;15.68;;;;;;;19.09;77.99;94902.44;5065256;28;20044;-67
2021/08/25 06:31:11;;;;;;;20.73;14.45;;;;;;;19.29;77.51;94890.84;5065660;28;20052;-67
2021/08/25 06:33:38;;;;;;;17.65;12.50;;;;;;;19.41;75.13;94875.38;5066203;28;20045;-67
2021/08/25 06:36:05;;;;;;;22.42;12.18;;;;;;;19.62;75.07;94883.00;5065131;28;20375;-67
2021/08/25 06:38:32;;;;;;;17.35;11.60;;;;;;;19.77;73.59;94874.06;5065180;28;20045;-67
2021/08/25 06:40:59;;;;;;;14.80;10.98;;;;;;;19.92;72.89;94871.22;5065627;28;20040;-68
2021/08/25 06:43:26;;;;;;;14.25;11.35;;;;;;;20.11;72.16;94873.03;5065583;28;20114;-67
2021/08/25 06:45:53;;;;;;;16.50;10.50;;;;;;;20.25;68.86;94869.31;5065664;28;20779;-67
2021/08/25 06:48:19;;;;;;;13.75;10.98;;;;;;;20.41;69.31;94877.78;5066170;28;20048;-67
2021/08/25 06:50:46;;;;;;;10.95;8.70;;;;;;;20.61;67.52;94867.94;5065580;28;20040;-67
2021/08/25 06:53:13;;;;;;;15.00;8.48;;;;;;;20.78;67.07;94860.22;5064393;28;20040;-67
2021/08/25 06:55:40;;;;;;;14.05;9.00;;;;;;;20.89;65.29;94850.22;5064822;28;20058;-68
2021/08/25 06:58:07;;;;;;;15.20;8.77;;;;;;;21.04;65.03;94862.34;5064691;28;20094;-68
2021/08/25 07:00:33;;;;;;;10.00;7.13;;;;;;;21.25;63.38;94853.97;5063163;28;20045;-68
2021/08/25 07:03:00;;;;;;;15.93;8.55;;;;;;;21.50;62.71;94864.06;5062499;28;20525;-69
2021/08/25 07:05:27;;;;;;;19.42;8.13;;;;;;;21.77;62.54;94863.19;5065546;28;20098;-69
2021/08/25 07:07:55;;;;;;;13.93;7.90;;;;;;;21.95;62.37;94869.41;5064752;28;20043;-69
2021/08/25 07:10:22;;;;;;;8.88;6.65;;;;;;;22.18;61.80;94877.31;5064048;28;20575;-69
2021/08/25 07:12:50;;;;;;;9.88;7.50;;;;;;;22.32;58.95;94864.78;5063558;28;20033;-69
2021/08/25 07:15:17;;;;;;;12.95;6.75;;;;;;;22.51;58.08;94874.44;5065620;28;22551;-69
2021/08/25 07:17:45;;;;;;;9.43;5.90;;;;;;;22.77;57.52;94876.41;5064429;28;20556;-69
2021/08/25 07:20:13;;;;;;;10.43;5.95;;;;;;;22.92;56.11;94873.31;5064987;28;20056;-69
2021/08/25 07:22:41;;;;;;;7.63;5.93;;;;;;;23.13;56.19;94876.22;5065083;28;20044;-69
2021/08/25 07:25:08;;;;;;;10.77;5.88;;;;;;;23.44;54.04;94884.09;5064995;28;20040;-69
2021/08/25 07:27:36;;;;;;;8.50;5.65;;;;;;;23.63;52.43;94881.13;5065718;28;20044;-69
2021/08/25 07:30:04;;;;;;;11.63;5.80;;;;;;;23.68;52.12;94872.22;5066044;28;20044;-69
2021/08/25 07:32:30;;;;;;;12.20;7.28;;;;;;;23.71;53.33;94866.25;5068744;28;20102;-69
2021/08/25 07:34:57;;;;;;;15.73;8.27;;;;;;;23.53;54.51;94883.31;5069690;28;20085;-69
2021/08/25 07:37:24;;;;;;;12.82;8.55;;;;;;;23.35;56.19;94880.63;5062402;28;20033;-69
2021/08/25 07:39:51;;;;;;;12.30;8.40;;;;;;;23.21;57.44;94870.16;5067799;28;20106;-69
2021/08/25 07:42:18;;;;;;;16.08;10.02;;;;;;;23.23;57.84;94877.81;5068195;28;20037;-69
2021/08/25 07:44:44;;;;;;;21.90;10.35;;;;;;;23.34;57.73;94873.75;5067338;28;20086;-69
2021/08/25 07:47:11;;;;;;;19.95;9.90;;;;;;;23.31;56.87;94862.97;5045276;28;20057;-69
2021/08/25 07:49:38;;;;;;;16.70;8.18;;;;;;;23.22;56.88;94861.06;5069135;28;20052;-69
2021/08/25 07:52:05;;;;;;;19.35;9.10;;;;;;;23.26;57.18;94855.91;5068744;28;20048;-69
2021/08/25 07:54:32;;;;;;;10.80;8.38;;;;;;;23.39;55.13;94849.69;5046258;28;20048;-69
2021/08/25 07:56:59;;;;;;;13.57;9.30;;;;;;;23.58;55.12;94851.25;5067744;28;20127;-69
2021/08/25 07:59:25;;;;;;;12.38;8.73;;;;;;;23.74;56.39;94849.69;5067449;28;20528;-70
2021/08/25 08:01:52;;;;;;;11.93;8.05;;;;;;;23.93;55.83;94860.03;5068227;28;20044;-69
2021/08/25 08:04:19;;;;;;;16.17;9.18;;;;;;;24.13;53.80;94858.59;5068728;28;20128;-69
2021/08/25 08:06:47;;;;;;;16.23;8.10;;;;;;;24.33;53.67;94859.78;5068886;28;20040;-69
2021/08/25 08:09:13;;;;;;;12.20;8.60;;;;;;;24.54;50.77;94859.94;5068821;28;20048;-69
2021/08/25 08:11:40;;;;;;;18.02;7.78;;;;;;;24.72;51.30;94855.31;5068713;28;20421;-69
2021/08/25 08:14:08;;;;;;;13.10;7.60;;;;;;;24.92;50.60;94853.00;5068912;28;20131;-69
2021/08/25 08:16:35;;;;;;;9.63;8.20;;;;;;;24.88;50.50;94849.44;5068715;28;20047;-69
2021/08/25 08:19:29;;;;;;;9.63;7.68;;;;;;;25.03;50.67;94834.78;5067427;28;20563;-69
2021/08/25 08:21:50;;;;;;;15.10;8.55;;;;;;;25.24;48.60;94838.28;5063680;28;20532;-69
2021/08/25 08:24:17;;;;;;;18.98;8.45;;;;;;;25.24;49.71;94827.59;5068106;28;20040;-70
2021/08/25 08:26:45;;;;;;;13.95;7.07;;;;;;;25.34;48.25;94826.47;5062752;28;20040;-69
2021/08/25 08:29:12;;;;;;;10.98;6.57;;;;;;;25.51;49.88;94836.19;5065755;28;20049;-69
2021/08/25 08:31:39;;;;;;;9.88;6.25;;;;;;;25.42;48.49;94838.94;5066073;28;20066;-70
2021/08/25 08:34:06;;;;;;;11.85;6.35;;;;;;;25.49;49.53;94836.53;5067042;28;20060;-71
2021/08/25 08:36:33;;;;;;;12.15;6.28;;;;;;;25.90;49.42;94847.50;5067075;28;20151;-70
2021/08/25 08:39:00;;;;;;;7.38;6.28;;;;;;;26.04;46.15;94848.00;5067352;28;20110;-71
2021/08/25 08:41:26;;;;;;;9.98;7.25;;;;;;;26.21;47.40;94840.94;5066695;28;20111;-70
2021/08/25 08:43:53;;;;;;;12.27;7.07;;;;;;;26.37;46.63;94828.50;5065447;28;20052;-70
2021/08/25 08:46:22;;;;;;;10.60;6.43;;;;;;;26.69;44.88;94834.91;5065864;28;20062;-72
2021/08/25 08:48:51;;;;;;;7.60;6.38;;;;;;;26.91;44.98;94834.81;5066014;28;20079;-70
2021/08/25 08:51:23;;;;;;;9.05;6.22;;;;;;;26.73;45.49;94839.59;5065362;28;20858;-70
2021/08/25 08:53:52;;;;;;;8.80;6.70;;;;;;;27.02;43.92;94835.91;5067860;28;20048;-70
2021/08/25 08:56:19;;;;;;;8.38;6.15;;;;;;;27.29;42.38;94839.81;5066321;28;20115;-70
2021/08/25 08:58:48;;;;;;;9.52;6.10;;;;;;;27.62;42.67;94836.94;5067827;28;20056;-71
2021/08/25 09:01:15;;;;;;;11.88;6.72;;;;;;;28.07;40.71;94839.66;5067096;28;20079;-70
2021/08/25 09:03:42;;;;;;;6.93;6.13;;;;;;;28.42;40.42;94834.47;5066683;28;20434;-71
2021/08/25 09:06:09;;;;;;;11.50;6.82;;;;;;;28.63;39.20;94836.91;5049570;28;20059;-71
2021/08/25 09:08:39;;;;;;;7.95;6.00;;;;;;;28.77;40.99;94845.31;5067461;28;20044;-70
2021/08/25 09:11:13;;;;;;;8.43;5.47;;;;;;;28.70;39.26;94847.81;5067514;28;20487;-71
2021/08/25 09:13:48;;;;;;;12.07;6.15;;;;;;;28.41;38.60;94839.03;5066974;28;20527;-70
2021/08/25 09:16:24;;;;;;;10.43;5.43;;;;;;;27.98;39.26;94843.28;5066778;28;20053;-71
2021/08/25 09:19:13;;;;;;;15.35;6.72;;;;;;;27.82;41.11;94834.41;5066861;28;20119;-70
2021/08/25 09:21:49;;;;;;;21.23;7.82;;;;;;;27.64;47.03;94840.06;5066727;28;20044;-72
2021/08/25 09:24:21;;;;;;;12.77;6.93;;;;;;;27.49;49.28;94838.06;5066961;28;20037;-73
2021/08/25 09:27:07;;;;;;;10.27;6.70;;;;;;;27.15;46.06;94834.78;5066576;28;20040;-72
2021/08/25 09:29:40;;;;;;;9.98;6.85;;;;;;;27.17;47.93;94837.91;5058713;28;20060;-72
2021/08/25 09:32:21;;;;;;;10.20;7.82;;;;;;;26.89;46.13;94833.25;5063057;28;20033;-71
2021/08/25 09:34:54;;;;;;;10.85;7.28;;;;;;;26.80;46.29;94829.91;5064141;28;20056;-71
2021/08/25 09:37:22;;;;;;;13.32;7.97;;;;;;;27.02;45.18;94831.34;5062326;28;20425;-70
2021/08/25 09:39:55;;;;;;;10.27;7.97;;;;;;;27.15;43.90;94831.31;5061680;28;20048;-70
2021/08/25 09:42:46;;;;;;;13.98;6.90;;;;;;;27.26;43.98;94835.91;5062861;28;20037;-70
2021/08/25 09:45:15;;;;;;;12.90;8.18;;;;;;;27.39;44.53;94838.56;5061838;28;20044;-69
2021/08/25 09:47:56;;;;;;;15.50;9.93;;;;;;;27.87;44.96;94826.13;5065026;28;20116;-70
2021/08/25 09:50:25;;;;;;;19.13;10.82;;;;;;;28.11;43.06;94832.50;5064044;28;20067;-70
2021/08/25 09:52:52;;;;;;;14.38;10.13;;;;;;;28.35;42.04;94828.94;5064308;28;20044;-71
2021/08/25 09:55:30;;;;;;;14.30;10.15;;;;;;;28.07;41.34;94820.94;5063226;28;20048;-71
2021/08/25 09:57:58;;;;;;;13.82;9.88;;;;;;;28.07;42.87;94834.31;5065115;28;20056;-71
2021/08/25 10:00:25;;;;;;;19.08;10.00;;;;;;;28.07;42.49;94827.06;5059812;28;20079;-69
2021/08/25 10:02:52;;;;;;;19.08;10.68;;;;;;;28.19;41.11;94816.28;5062494;28;20540;-71
2021/08/25 10:05:28;;;;;;;13.40;10.77;;;;;;;28.33;41.29;94815.88;5060715;28;20052;-71
2021/08/25 10:07:56;;;;;;;11.95;9.45;;;;;;;28.55;41.29;94811.06;5063973;28;20032;-71
2021/08/25 10:10:24;;;;;;;12.00;9.77;;;;;;;28.86;40.93;94812.16;5060787;28;20502;-71
2021/08/25 10:12:52;;;;;;;15.13;10.90;;;;;;;29.04;40.08;94805.28;5062737;28;20047;-71
2021/08/25 10:15:31;;;;;;;13.50;10.13;;;;;;;28.75;40.37;94823.41;5062822;28;20057;-71
2021/08/25 10:18:00;;;;;;;12.25;8.88;;;;;;;28.55;41.17;94827.16;5062499;28;20044;-71
2021/08/25 10:20:35;;;;;;;15.85;8.55;;;;;;;28.38;41.24;94820.97;5063082;28;20059;-71
2021/08/25 10:23:03;;;;;;;15.23;11.75;;;;;;;27.93;41.23;94826.69;5065463;28;20421;-71
2021/08/25 10:25:30;;;;;;;24.80;9.82;;;;;;;27.57;43.34;94829.16;5063833;28;20068;-70
2021/08/25 10:28:06;;;;;;;15.13;9.55;;;;;;;27.08;41.35;94818.53;5065774;28;20052;-71
2021/08/25 10:30:57;;;;;;;14.20;9.38;;;;;;;26.79;41.81;94827.56;5059771;28;20056;-71
2021/08/25 10:33:24;;;;;;;17.40;12.27;;;;;;;26.79;43.71;94823.00;5056318;28;20551;-71
2021/08/25 10:35:51;;;;;;;15.20;11.63;;;;;;;26.82;43.74;94821.56;5057106;28;20122;-71
2021/08/25 10:38:22;;;;;;;14.50;11.13;;;;;;;26.78;44.19;94821.47;5060463;28;20059;-71
2021/08/25 10:40:52;;;;;;;16.65;10.55;;;;;;;26.88;44.45;94810.31;5061363;28;20433;-71
2021/08/25 10:43:41;;;;;;;13.13;10.88;;;;;;;26.76;44.73;94812.19;5061228;28;20068;-71
2021/08/25 10:46:13;;;;;;;18.55;11.20;;;;;;;26.77;45.21;94806.53;5060102;28;20048;-70
2021/08/25 10:48:44;;;;;;;11.75;10.27;;;;;;;26.92;45.70;94806.97;5062647;28;20462;-72
2021/08/25 10:51:32;;;;;;;13.55;9.98;;;;;;;26.98;44.91;94792.28;5060802;28;20057;-70
2021/08/25 10:54:11;;;;;;;16.52;10.50;;;;;;;27.12;44.61;94791.91;5064614;28;20047;-71
2021/08/25 10:56:43;;;;;;;16.20;10.30;;;;;;;27.20;44.39;94772.28;5066107;28;20055;-71
2021/08/25 10:59:12;;;;;;;20.63;10.45;;;;;;;27.45;43.27;94779.13;5064685;28;20056;-71
2021/08/25 11:01:40;;;;;;;16.15;10.40;;;;;;;27.69;44.43;94798.13;5060787;28;20063;-70
2021/08/25 11:04:21;;;;;;;14.35;10.68;;;;;;;27.18;46.17;94788.66;5064260;28;20040;-69
2021/08/25 11:06:51;;;;;;;12.55;10.27;;;;;;;27.07;46.70;94779.56;5065703;28;20040;-69
2021/08/25 11:09:17;;;;;;;17.45;9.25;;;;;;;27.01;45.05;94780.91;5064642;28;20091;-71
2021/08/25 11:11:46;;;;;;;12.63;10.10;;;;;;;26.93;44.43;94784.47;5066080;28;20421;-70
2021/08/25 11:14:25;;;;;;;12.75;11.27;;;;;;;27.09;46.15;94766.63;5065544;28;20036;-70
2021/08/25 11:16:55;;;;;;;13.30;11.45;;;;;;;27.37;45.49;94773.94;5064236;28;20040;-70
2021/08/25 11:19:27;;;;;;;14.82;10.55;;;;;;;27.58;45.16;94771.84;5063968;28;20033;-70
2021/08/25 11:21:55;;;;;;;19.17;11.18;;;;;;;27.62;44.53;94774.63;5059762;28;20403;-71
2021/08/25 11:24:22;;;;;;;12.00;10.50;;;;;;;27.44;43.41;94777.59;5064980;28;20044;-71
2021/08/25 11:26:49;;;;;;;13.63;10.93;;;;;;;27.30;44.11;94779.88;5065784;28;20927;-70
2021/08/25 11:29:17;;;;;;;12.50;10.88;;;;;;;27.31;44.91;94776.06;5065268;28;20052;-70